createdAt,value
2019-02-19T00:01:54.508Z,59.74
2019-02-19T00:04:24.785Z,59.70
2019-02-19T00:06:55.429Z,59.82
2019-02-19T00:09:25.678Z,59.58
2019-02-19T00:11:56.017Z,59.40
2019-02-19T00:14:26.398Z,59.37
2019-02-19T00:16:56.733Z,59.36
2019-02-19T00:19:27.110Z,59.07
2019-02-19T00:21:59.094Z,59.07
2019-02-19T00:24:29.413Z,59.45
2019-02-19T00:26:59.851Z,59.74
2019-02-19T00:29:30.208Z,59.74
2019-02-19T00:32:03.927Z,60.04
2019-02-19T00:34:34.588Z,60.31
2019-02-19T00:37:06.696Z,60.75
2019-02-19T00:39:37.057Z,60.94
2019-02-19T00:42:08.906Z,61.13
2019-02-19T00:44:39.202Z,61.43
2019-02-19T00:47:09.671Z,61.73
2019-02-19T00:49:41.438Z,62.15
2019-02-19T00:52:14.193Z,62.76
2019-02-19T00:54:44.843Z,63.03
2019-02-19T00:57:15.167Z,63.03
2019-02-19T00:59:45.684Z,62.91
2019-02-19T01:02:19.201Z,62.90
2019-02-19T01:04:53.673Z,62.72
2019-02-19T01:07:24.008Z,62.63
2019-02-19T01:09:54.479Z,62.38
2019-02-19T01:12:24.770Z,62.19
2019-02-19T01:14:55.045Z,62.02
2019-02-19T01:17:25.356Z,62.40
2019-02-19T01:19:55.667Z,62.31
2019-02-19T01:22:25.981Z,61.91
2019-02-19T01:24:56.307Z,62.17
2019-02-19T01:27:26.613Z,62.08
2019-02-19T01:29:57.281Z,61.96
2019-02-19T01:32:27.584Z,61.67
2019-02-19T01:35:00.258Z,61.42
2019-02-19T01:37:30.515Z,61.38
2019-02-19T01:40:02.178Z,61.21
2019-02-19T01:42:32.592Z,60.40
2019-02-19T01:45:03.216Z,59.85
2019-02-19T01:47:33.883Z,59.43
2019-02-19T01:50:04.708Z,59.23
2019-02-19T01:52:35.052Z,59.07
2019-02-19T01:55:06.095Z,59.06
2019-02-19T01:57:36.677Z,59.11
2019-02-19T02:00:07.909Z,59.34
2019-02-19T02:02:38.540Z,59.38
2019-02-19T02:05:09.128Z,59.56
2019-02-19T02:07:39.537Z,59.55
2019-02-19T02:10:09.861Z,59.92
2019-02-19T02:12:40.756Z,60.33
2019-02-19T02:15:11.151Z,60.76
2019-02-19T02:17:41.785Z,60.94
2019-02-19T02:20:12.057Z,61.30
2019-02-19T02:22:44.479Z,61.17
2019-02-19T02:25:15.370Z,61.42
2019-02-19T02:27:47.393Z,61.27
2019-02-19T02:30:17.701Z,61.47
2019-02-19T02:32:48.383Z,61.36
2019-02-19T02:35:18.702Z,61.68
2019-02-19T02:37:51.380Z,61.62
2019-02-19T02:40:21.779Z,61.76
2019-02-19T02:42:52.860Z,62.14
2019-02-19T02:45:23.723Z,62.41
2019-02-19T02:47:54.032Z,62.43
2019-02-19T02:50:24.581Z,62.70
2019-02-19T02:52:54.941Z,62.69
2019-02-19T02:55:25.341Z,62.88
2019-02-19T02:57:55.651Z,63.08
2019-02-19T03:00:27.160Z,63.97
2019-02-19T03:02:57.696Z,64.22
2019-02-19T03:05:28.318Z,65.07
2019-02-19T03:08:02.837Z,65.33
2019-02-19T03:10:33.152Z,65.99
2019-02-19T03:13:03.425Z,66.73
2019-02-19T03:15:33.732Z,67.20
2019-02-19T03:18:04.321Z,67.76
2019-02-19T03:20:34.631Z,68.12
2019-02-19T03:23:05.018Z,68.54
2019-02-19T03:25:35.607Z,69.21
2019-02-19T03:28:05.862Z,69.34
2019-02-19T03:30:37.110Z,69.25
2019-02-19T03:33:07.714Z,69.61
2019-02-19T03:35:39.893Z,70.41
2019-02-19T03:38:10.254Z,70.94
2019-02-19T03:40:40.554Z,71.83
2019-02-19T03:43:10.835Z,72.49
2019-02-19T03:45:41.141Z,73.14
2019-02-19T03:48:11.533Z,73.45
2019-02-19T03:50:41.812Z,73.64
2019-02-19T03:53:12.166Z,73.83
2019-02-19T03:55:42.557Z,74.17
2019-02-19T03:58:14.200Z,74.13
2019-02-19T04:00:44.847Z,74.10
2019-02-19T04:03:15.162Z,74.29
2019-02-19T04:05:45.838Z,74.26
2019-02-19T04:08:17.278Z,74.21
2019-02-19T04:10:47.769Z,74.30
2019-02-19T04:13:19.695Z,74.29
2019-02-19T04:15:49.999Z,74.49
2019-02-19T04:18:21.909Z,74.34
2019-02-19T04:20:52.212Z,74.33
2019-02-19T04:23:23.842Z,74.38
2019-02-19T04:25:54.329Z,74.38
2019-02-19T04:28:24.655Z,74.59
2019-02-19T04:30:55.000Z,74.62
2019-02-19T04:33:25.296Z,74.55
2019-02-19T04:35:55.916Z,74.50
2019-02-19T04:38:26.214Z,74.41
2019-02-19T04:40:56.845Z,74.46
2019-02-19T04:43:27.122Z,74.40
2019-02-19T04:45:57.738Z,74.27
2019-02-19T04:48:28.060Z,74.39
2019-02-19T04:50:58.754Z,74.50
2019-02-19T04:53:29.238Z,74.54
2019-02-19T04:55:59.732Z,74.43
2019-02-19T04:58:30.032Z,74.15
2019-02-19T05:01:00.361Z,73.81
2019-02-19T05:03:30.926Z,73.54
2019-02-19T05:06:02.536Z,73.67
2019-02-19T05:08:32.855Z,73.65
2019-02-19T05:11:03.224Z,73.65
2019-02-19T05:13:33.774Z,73.33
2019-02-19T05:16:04.147Z,73.25
2019-02-19T05:18:34.736Z,73.36
2019-02-19T05:21:06.237Z,73.55
2019-02-19T05:23:39.181Z,73.45
2019-02-19T05:26:11.806Z,73.50
2019-02-19T05:28:42.773Z,73.50
2019-02-19T05:31:13.155Z,73.56
2019-02-19T05:33:44.010Z,73.60
2019-02-19T05:36:14.596Z,73.68
2019-02-19T05:38:45.249Z,73.94
2019-02-19T05:41:15.655Z,74.13
2019-02-19T05:43:47.579Z,74.00
2019-02-19T05:46:18.061Z,73.89
2019-02-19T05:48:48.548Z,73.92
2019-02-19T05:51:18.840Z,74.04
2019-02-19T05:53:49.282Z,74.25
2019-02-19T05:56:19.772Z,74.35
2019-02-19T05:58:51.301Z,74.23
2019-02-19T06:01:21.693Z,74.33
2019-02-19T06:03:52.060Z,74.51
2019-02-19T06:06:22.648Z,74.55
2019-02-19T06:08:52.978Z,74.59
2019-02-19T06:11:23.316Z,74.59
2019-02-19T06:13:53.604Z,74.57
2019-02-19T06:16:24.616Z,74.71
2019-02-19T06:18:54.951Z,74.67
2019-02-19T06:21:25.823Z,74.98
2019-02-19T06:23:56.126Z,74.98
2019-02-19T06:26:26.702Z,75.08
2019-02-19T06:28:57.885Z,74.86
2019-02-19T06:31:28.722Z,74.77
2019-02-19T06:33:59.131Z,74.67
2019-02-19T06:36:30.050Z,74.62
2019-02-19T06:39:00.389Z,74.53
2019-02-19T06:41:32.620Z,74.17
2019-02-19T06:44:02.960Z,74.16
2019-02-19T06:46:35.180Z,74.43
2019-02-19T06:49:05.624Z,74.32
2019-02-19T06:51:37.317Z,74.05
2019-02-19T06:54:07.908Z,73.96
2019-02-19T06:56:39.058Z,73.94
2019-02-19T06:59:09.752Z,74.01
2019-02-19T07:02:19.762Z,73.78
2019-02-19T07:04:56.617Z,73.64
2019-02-19T07:07:27.082Z,73.43
2019-02-19T07:09:58.723Z,73.24
2019-02-19T07:12:29.049Z,73.18
2019-02-19T07:14:59.668Z,73.22
2019-02-19T07:17:29.985Z,73.19
2019-02-19T07:20:00.718Z,73.26
2019-02-19T07:22:31.305Z,73.21
2019-02-19T07:25:01.594Z,73.22
2019-02-19T07:27:32.100Z,72.98
2019-02-19T07:30:02.686Z,72.96
2019-02-19T07:32:33.125Z,73.10
2019-02-19T07:35:03.629Z,73.05
2019-02-19T07:37:33.974Z,72.99
2019-02-19T07:40:04.386Z,72.80
2019-02-19T07:42:35.073Z,72.48
2019-02-19T07:45:05.859Z,72.26
2019-02-19T07:47:36.252Z,72.25
2019-02-19T07:50:07.393Z,72.20
2019-02-19T07:52:39.015Z,72.34
2019-02-19T07:55:09.826Z,72.66
2019-02-19T07:57:42.897Z,72.93
2019-02-19T08:00:13.569Z,73.06
2019-02-19T08:02:44.135Z,73.49
2019-02-19T08:05:14.448Z,73.84
2019-02-19T08:07:45.180Z,74.18
2019-02-19T08:10:15.860Z,74.33
2019-02-19T08:12:47.971Z,74.46
2019-02-19T08:15:18.286Z,74.46
2019-02-19T08:17:49.293Z,74.31
2019-02-19T08:20:19.595Z,73.81
2019-02-19T08:22:52.765Z,73.05
2019-02-19T08:25:24.449Z,71.78
2019-02-19T08:27:55.105Z,70.25
2019-02-19T08:30:25.689Z,68.68
2019-02-19T08:32:55.971Z,67.64
2019-02-19T08:35:26.663Z,64.59
2019-02-19T08:37:56.976Z,57.14
2019-02-19T08:40:27.301Z,56.94
2019-02-19T08:42:57.607Z,55.47
2019-02-19T08:45:30.156Z,55.75
2019-02-19T08:48:00.525Z,55.75
2019-02-19T08:50:31.802Z,52.29
2019-02-19T08:53:02.194Z,53.00
2019-02-19T08:55:34.819Z,54.29
2019-02-19T08:58:05.200Z,51.72
2019-02-19T09:00:36.077Z,48.58
2019-02-19T09:03:06.376Z,46.52
2019-02-19T09:05:36.863Z,44.69
2019-02-19T09:08:07.377Z,46.56
2019-02-19T09:10:39.896Z,48.26
2019-02-19T09:13:10.619Z,47.96
2019-02-19T09:15:41.133Z,49.18
2019-02-19T09:18:11.689Z,49.18
2019-02-19T09:20:42.160Z,48.00
2019-02-19T09:23:12.791Z,47.28
2019-02-19T09:25:44.648Z,48.10
2019-02-19T09:28:15.020Z,47.19
2019-02-19T09:30:45.374Z,45.53
2019-02-19T09:33:16.065Z,47.45
2019-02-19T09:35:46.460Z,47.44
2019-02-19T09:38:16.855Z,45.82
2019-02-19T09:40:47.190Z,45.82
2019-02-19T09:43:17.971Z,45.47
2019-02-19T09:45:48.700Z,44.45
2019-02-19T09:48:19.035Z,38.50
2019-02-19T09:50:49.504Z,35.63
2019-02-19T09:53:20.144Z,35.77
2019-02-19T09:55:50.496Z,35.77
2019-02-19T09:58:21.096Z,37.60
2019-02-19T10:00:51.551Z,35.45
2019-02-19T10:03:22.368Z,35.85
2019-02-19T10:05:52.821Z,34.36
2019-02-19T10:08:26.216Z,35.24
2019-02-19T10:10:56.885Z,36.58
2019-02-19T10:13:27.247Z,33.72
2019-02-19T10:15:57.614Z,29.25
2019-02-19T10:18:28.114Z,26.38
2019-02-19T10:20:59.724Z,26.03
2019-02-19T10:23:30.441Z,28.25
2019-02-19T10:26:01.026Z,28.54
2019-02-19T10:28:31.662Z,30.64
2019-02-19T10:31:02.173Z,29.16
2019-02-19T10:33:32.528Z,26.52
2019-02-19T10:36:03.201Z,28.46
2019-02-19T10:38:33.569Z,33.20
2019-02-19T10:41:04.188Z,38.69
2019-02-19T10:43:36.818Z,42.47
2019-02-19T10:46:07.427Z,44.96
2019-02-19T10:48:37.860Z,46.74
2019-02-19T10:51:08.475Z,46.90
2019-02-19T10:53:39.132Z,46.87
2019-02-19T10:56:09.952Z,46.75
2019-02-19T10:58:40.305Z,46.44
2019-02-19T11:01:11.696Z,47.29
2019-02-19T11:03:42.034Z,46.94
2019-02-19T11:06:12.948Z,46.85
2019-02-19T11:08:43.684Z,47.15
2019-02-19T11:11:14.085Z,48.04
2019-02-19T11:13:47.592Z,48.36
2019-02-19T11:16:18.120Z,48.36
2019-02-19T11:18:48.827Z,48.85
2019-02-19T11:21:20.211Z,48.85
2019-02-19T11:23:51.068Z,48.82
2019-02-19T11:26:21.379Z,48.37
2019-02-19T11:28:51.946Z,47.66
2019-02-19T11:31:22.508Z,47.23
2019-02-19T11:33:53.152Z,46.73
2019-02-19T11:36:23.497Z,47.37
2019-02-19T11:38:55.256Z,47.34
2019-02-19T11:41:25.575Z,47.53
2019-02-19T11:43:56.150Z,47.91
2019-02-19T11:46:26.791Z,48.36
2019-02-19T11:48:58.887Z,48.38
2019-02-19T11:51:29.211Z,48.32
2019-02-19T11:53:59.610Z,48.00
2019-02-19T11:56:30.219Z,48.12
2019-02-19T11:59:01.768Z,48.00
2019-02-19T12:01:32.304Z,47.71
2019-02-19T12:04:03.049Z,47.40
2019-02-19T12:06:33.929Z,47.00
2019-02-19T12:09:05.424Z,47.04
2019-02-19T12:11:35.686Z,47.11
2019-02-19T12:14:06.189Z,46.36
2019-02-19T12:16:36.473Z,46.00
2019-02-19T12:19:06.958Z,45.63
2019-02-19T12:21:37.251Z,45.94
2019-02-19T12:24:07.592Z,46.66
2019-02-19T12:26:37.946Z,46.21
2019-02-19T12:29:10.724Z,46.39
2019-02-19T12:31:41.129Z,46.85
2019-02-19T12:34:11.610Z,47.02
2019-02-19T12:36:42.496Z,46.85
2019-02-19T12:39:12.901Z,47.18
2019-02-19T12:41:43.203Z,47.66
2019-02-19T12:44:13.784Z,47.80
2019-02-19T12:46:44.161Z,48.08
2019-02-19T12:49:16.523Z,47.84
2019-02-19T12:51:47.150Z,47.84
2019-02-19T12:54:17.647Z,46.91
2019-02-19T12:56:48.745Z,45.45
2019-02-19T12:59:19.353Z,45.44
2019-02-19T13:01:49.912Z,45.45
2019-02-19T13:04:20.237Z,45.22
2019-02-19T13:06:50.756Z,45.42
2019-02-19T13:09:21.092Z,45.44
2019-02-19T13:11:51.706Z,45.29
2019-02-19T13:14:22.338Z,44.63
2019-02-19T13:16:52.724Z,44.60
2019-02-19T13:19:23.295Z,44.92
2019-02-19T13:21:55.066Z,45.42
2019-02-19T13:24:26.408Z,45.48
2019-02-19T13:26:56.975Z,45.76
2019-02-19T13:29:27.307Z,45.42
2019-02-19T13:31:58.286Z,45.01
2019-02-19T13:34:30.687Z,44.59
2019-02-19T13:37:01.049Z,44.85
2019-02-19T13:39:32.995Z,45.09
2019-02-19T13:42:03.351Z,45.42
2019-02-19T13:44:33.686Z,44.99
2019-02-19T13:47:05.838Z,43.95
2019-02-19T13:49:39.066Z,43.63
2019-02-19T13:52:32.735Z,43.76
2019-02-19T13:55:07.743Z,44.20
2019-02-19T13:57:38.406Z,44.41
2019-02-19T14:00:10.937Z,44.05
2019-02-19T14:02:42.985Z,44.08
2019-02-19T14:05:13.302Z,44.45
2019-02-19T14:07:45.228Z,44.45
2019-02-19T14:10:15.860Z,44.43
2019-02-19T14:12:46.404Z,44.43
2019-02-19T14:15:43.499Z,44.87
2019-02-19T14:18:16.163Z,45.08
2019-02-19T14:21:08.331Z,45.36
2019-02-19T14:23:59.865Z,45.72
2019-02-19T14:27:01.346Z,46.30
2019-02-19T14:29:49.603Z,46.54
2019-02-19T14:32:32.557Z,46.40
2019-02-19T14:35:37.251Z,45.95
2019-02-19T14:38:28.488Z,45.35
2019-02-19T14:41:25.536Z,44.15
2019-02-19T14:44:14.793Z,43.69
2019-02-19T14:47:02.820Z,43.76
2019-02-19T14:50:10.973Z,44.20
2019-02-19T14:53:00.435Z,44.32
2019-02-19T14:55:59.029Z,45.11
2019-02-19T14:59:06.775Z,46.04
2019-02-19T15:02:01.308Z,46.60
2019-02-19T15:04:54.082Z,47.03
2019-02-19T15:07:43.341Z,47.25
2019-02-19T15:10:28.875Z,47.33
2019-02-19T15:13:15.215Z,47.40
2019-02-19T15:15:57.145Z,47.88
2019-02-19T15:18:49.312Z,47.91
2019-02-19T15:21:37.256Z,47.88
2019-02-19T15:24:32.778Z,48.75
2019-02-19T15:27:12.896Z,49.60
2019-02-19T15:30:01.039Z,49.92
2019-02-19T15:32:42.207Z,49.79
2019-02-19T15:35:25.038Z,49.63
2019-02-19T15:38:03.893Z,49.45
2019-02-19T15:41:11.506Z,49.20
2019-02-19T15:43:50.097Z,49.13
2019-02-19T15:46:39.435Z,49.22
2019-02-19T15:49:48.091Z,49.57
2019-02-19T15:52:33.531Z,49.65
2019-02-19T15:55:23.046Z,49.35
2019-02-19T15:58:11.502Z,49.23
2019-02-19T16:00:46.979Z,49.53
2019-02-19T16:03:34.654Z,50.60
2019-02-19T16:06:26.750Z,50.60
2019-02-19T16:09:15.292Z,50.62
2019-02-19T16:12:04.833Z,50.95
2019-02-19T16:15:09.635Z,51.33
2019-02-19T16:18:05.568Z,51.97
2019-02-19T16:20:46.045Z,52.31
2019-02-19T16:23:38.219Z,53.04
2019-02-19T16:26:27.815Z,53.53
2019-02-19T16:29:15.971Z,53.59
2019-02-19T16:32:15.819Z,53.59
2019-02-19T16:35:08.318Z,54.08
2019-02-19T16:37:46.423Z,54.57
2019-02-19T16:40:35.464Z,54.79
2019-02-19T16:43:34.143Z,54.72
2019-02-19T16:46:30.909Z,54.81
2019-02-19T16:49:29.550Z,55.45
2019-02-19T16:52:24.947Z,56.28
2019-02-19T16:55:29.908Z,56.65
2019-02-19T16:58:21.067Z,56.89
2019-02-19T17:01:00.172Z,57.50
2019-02-19T17:03:48.925Z,57.52
2019-02-19T17:06:40.573Z,57.72
2019-02-19T17:09:30.615Z,57.55
2019-02-19T17:12:29.367Z,57.47
2019-02-19T17:15:15.699Z,57.40
2019-02-19T17:18:14.767Z,57.56
2019-02-19T17:21:02.832Z,57.46
2019-02-19T17:23:43.740Z,58.17
2019-02-19T17:26:18.643Z,59.06
2019-02-19T17:28:57.017Z,59.65
2019-02-19T17:31:36.770Z,60.08
2019-02-19T17:34:30.202Z,60.37
2019-02-19T17:37:19.513Z,60.64
2019-02-19T17:39:59.223Z,60.35
2019-02-19T17:43:06.770Z,60.22
2019-02-19T17:45:59.080Z,60.07
2019-02-19T17:48:48.735Z,60.34
2019-02-19T17:51:41.356Z,60.56
2019-02-19T17:54:27.940Z,60.85
2019-02-19T17:57:17.482Z,61.09
2019-02-19T18:00:05.841Z,60.96
2019-02-19T18:02:48.442Z,60.55
2019-02-19T18:05:49.762Z,60.67
2019-02-19T18:08:42.437Z,61.33
2019-02-19T18:11:34.008Z,62.28
2019-02-19T18:14:20.939Z,62.51
2019-02-19T18:17:07.079Z,62.82
2019-02-19T18:19:37.885Z,62.10
2019-02-19T18:22:08.279Z,62.10
2019-02-19T18:24:39.019Z,62.23
2019-02-19T18:27:09.491Z,62.36
2019-02-19T18:29:40.174Z,62.36
2019-02-19T18:32:10.750Z,62.40
2019-02-19T18:34:41.134Z,62.35
2019-02-19T18:37:11.722Z,62.58
2019-02-19T18:39:42.409Z,62.40
2019-02-19T18:42:14.160Z,62.68
2019-02-19T18:44:48.971Z,62.37
2019-02-19T18:47:19.378Z,62.35
2019-02-19T18:49:51.427Z,62.31
2019-02-19T18:52:22.076Z,61.97
2019-02-19T18:54:54.047Z,61.83
2019-02-19T18:57:26.133Z,61.30
2019-02-19T18:59:56.994Z,61.22
2019-02-19T19:02:27.425Z,60.94
2019-02-19T19:04:57.931Z,61.12
2019-02-19T19:07:28.343Z,61.28
2019-02-19T19:09:59.022Z,61.15
2019-02-19T19:12:29.422Z,61.35
2019-02-19T19:14:59.992Z,61.07
2019-02-19T19:17:30.497Z,61.12
2019-02-19T19:20:01.224Z,60.92
2019-02-19T19:22:31.973Z,60.64
2019-02-19T19:25:02.664Z,60.50
2019-02-19T19:27:33.434Z,60.29
2019-02-19T19:30:03.873Z,60.32
2019-02-19T19:32:34.680Z,60.23
2019-02-19T19:35:05.319Z,60.24
2019-02-19T19:37:37.633Z,60.40
2019-02-19T19:40:09.131Z,60.64
2019-02-19T19:42:39.772Z,60.75
2019-02-19T19:45:10.524Z,60.96
2019-02-19T19:47:41.242Z,61.32
2019-02-19T19:50:11.733Z,61.46
2019-02-19T19:52:42.143Z,61.54
2019-02-19T19:55:12.677Z,61.65
2019-02-19T19:57:45.119Z,61.49
2019-02-19T20:00:15.603Z,61.42
2019-02-19T20:02:46.288Z,61.47
2019-02-19T20:05:16.618Z,61.34
2019-02-19T20:07:47.041Z,61.44
2019-02-19T20:10:17.741Z,61.42
2019-02-19T20:12:48.205Z,61.42
2019-02-19T20:15:28.308Z,61.74
2019-02-19T20:17:59.349Z,61.84
2019-02-19T20:20:31.897Z,62.04
2019-02-19T20:23:04.351Z,62.56
2019-02-19T20:25:34.732Z,62.82
2019-02-19T20:28:05.095Z,63.21
2019-02-19T20:30:35.658Z,63.21
2019-02-19T20:33:06.349Z,63.03
2019-02-19T20:35:36.688Z,63.35
2019-02-19T20:38:06.998Z,63.42
2019-02-19T20:40:37.671Z,63.42
2019-02-19T20:43:08.123Z,63.70
2019-02-19T20:45:38.886Z,63.70
2019-02-19T20:48:09.293Z,63.79
2019-02-19T20:50:40.375Z,63.81
2019-02-19T20:53:10.975Z,64.01
2019-02-19T20:55:43.508Z,64.25
2019-02-19T20:58:13.917Z,64.36
2019-02-19T21:00:45.985Z,64.57
2019-02-19T21:03:16.386Z,64.50
2019-02-19T21:05:48.932Z,64.05
2019-02-19T21:08:19.425Z,63.98
2019-02-19T21:10:50.995Z,64.09
2019-02-19T21:13:21.601Z,63.92
2019-02-19T21:15:54.430Z,63.88
2019-02-19T21:18:24.876Z,63.77
2019-02-19T21:20:56.601Z,63.74
2019-02-19T21:23:27.194Z,63.76
2019-02-19T21:25:57.867Z,63.81
2019-02-19T21:28:28.616Z,63.72
2019-02-19T21:31:00.877Z,63.72
2019-02-19T21:33:31.291Z,63.50
2019-02-19T21:36:01.754Z,63.31
2019-02-19T21:38:32.561Z,63.22
2019-02-19T21:41:02.994Z,63.45
2019-02-19T21:43:33.691Z,64.10
2019-02-19T21:46:04.046Z,64.91
2019-02-19T21:48:35.023Z,65.52
2019-02-19T21:51:05.613Z,66.13
2019-02-19T21:53:36.366Z,66.83
2019-02-19T21:56:06.713Z,66.83
2019-02-19T22:01:13.681Z,67.56
2019-02-19T22:03:44.029Z,68.01
2019-02-19T22:06:14.415Z,68.21
2019-02-19T22:08:45.353Z,68.31
2019-02-19T22:11:16.257Z,68.71
2019-02-19T22:13:48.775Z,69.11
2019-02-19T22:16:27.422Z,69.23
2019-02-19T22:19:00.327Z,69.58
2019-02-19T22:21:47.377Z,69.90
2019-02-19T22:24:54.750Z,70.37
2019-02-19T22:27:26.055Z,70.58
2019-02-19T22:29:56.557Z,70.19
2019-02-19T22:32:27.537Z,70.08
2019-02-19T22:34:59.762Z,70.01
2019-02-19T22:37:30.167Z,70.21
2019-02-19T22:40:00.645Z,70.13
2019-02-19T22:42:32.789Z,70.23
2019-02-19T22:45:03.481Z,70.79
2019-02-19T22:47:34.167Z,71.12
2019-02-19T22:50:08.295Z,71.32
2019-02-19T22:52:38.918Z,71.32
2019-02-19T22:55:21.663Z,71.59
2019-02-19T22:57:52.298Z,71.49
2019-02-19T23:00:44.365Z,71.45
2019-02-19T23:03:17.758Z,71.70
2019-02-19T23:05:48.254Z,71.75
2019-02-19T23:08:18.662Z,71.62
2019-02-19T23:10:49.431Z,71.73
2019-02-19T23:13:21.386Z,71.73
2019-02-19T23:15:52.350Z,71.66
2019-02-19T23:18:22.808Z,71.80
2019-02-19T23:21:02.342Z,71.83
2019-02-19T23:23:34.297Z,72.07
2019-02-19T23:26:04.701Z,72.09
2019-02-19T23:28:35.238Z,71.91
2019-02-19T23:31:07.539Z,72.01
2019-02-19T23:33:39.806Z,71.91
2019-02-19T23:36:38.664Z,72.02
2019-02-19T23:39:12.136Z,71.96
2019-02-19T23:41:42.978Z,71.92
2019-02-19T23:44:18.659Z,71.91
2019-02-19T23:46:51.451Z,72.06
2019-02-19T23:49:22.307Z,72.22
2019-02-19T23:52:01.358Z,72.30
2019-02-19T23:54:34.203Z,72.50
2019-02-19T23:57:04.578Z,72.59
2019-02-19T23:59:37.917Z,73.09
